Time;durP1;ratioP1;P1;durP2;ratioP2;P2;SDS_P1;SDS_P2;PMS_P1;PMS_P2;Temp;Humidity;BMP_temperature;BMP_pressure;BME280_temperature;BME280_humidity;BME280_pressure;Samples;Min_cycle;Max_cycle;Signal;HPM_P1;HPM_P2
2021/09/13 00:01:18;;;;;;;1.37;1.00;;;15.10;99.90;;;;;;6241444;23;20185;-84
2021/09/13 00:03:44;;;;;;;3.20;1.17;;;15.10;99.90;;;;;;6240295;23;20177;-84
2021/09/13 00:06:11;;;;;;;2.37;1.40;;;15.10;99.90;;;;;;6241019;23;20169;-85
2021/09/13 00:08:38;;;;;;;1.77;1.10;;;15.10;99.90;;;;;;6238914;23;20189;-85
2021/09/13 00:11:05;;;;;;;2.33;1.37;;;15.20;99.90;;;;;;6239677;23;20938;-85
2021/09/13 00:13:33;;;;;;;2.97;1.50;;;15.20;99.90;;;;;;6239909;23;20173;-83
2021/09/13 00:16:00;;;;;;;2.75;1.30;;;15.20;99.90;;;;;;6240212;23;20170;-86
2021/09/13 00:18:27;;;;;;;2.83;1.40;;;15.30;99.90;;;;;;6241026;23;20183;-84
2021/09/13 00:20:54;;;;;;;1.20;1.10;;;15.20;99.90;;;;;;6240931;23;20172;-84
2021/09/13 00:23:21;;;;;;;2.77;1.37;;;15.30;99.90;;;;;;6238479;23;20294;-85
2021/09/13 00:25:48;;;;;;;3.37;1.40;;;15.30;99.90;;;;;;6238226;23;20174;-84
2021/09/13 00:28:14;;;;;;;2.80;1.67;;;15.30;99.90;;;;;;6240123;23;20177;-84
2021/09/13 00:30:43;;;;;;;2.50;1.60;;;15.30;99.90;;;;;;6243455;23;20445;-84
2021/09/13 00:33:10;;;;;;;2.93;1.40;;;15.30;99.90;;;;;;6244200;23;20173;-85
2021/09/13 00:35:37;;;;;;;1.40;1.10;;;15.30;99.90;;;;;;6242132;23;20204;-85
2021/09/13 00:38:04;;;;;;;2.37;1.30;;;15.40;99.90;;;;;;6241412;23;20180;-83
2021/09/13 00:40:30;;;;;;;1.73;1.23;;;15.40;99.90;;;;;;6241538;23;20176;-83
2021/09/13 00:42:57;;;;;;;2.00;1.43;;;15.40;99.90;;;;;;6241010;23;20185;-82
2021/09/13 00:45:24;;;;;;;1.37;1.20;;;15.40;99.90;;;;;;6240632;23;20174;-85
2021/09/13 00:47:52;;;;;;;1.87;1.10;;;15.40;99.90;;;;;;6240983;23;20174;-84
2021/09/13 00:50:19;;;;;;;2.33;1.40;;;15.40;99.90;;;;;;6241122;23;20169;-85
2021/09/13 00:52:51;;;;;;;2.20;1.20;;;15.40;99.90;;;;;;6240849;23;20177;-83
2021/09/13 00:55:19;;;;;;;2.23;1.17;;;15.40;99.90;;;;;;6240840;23;20193;-85
2021/09/13 00:57:46;;;;;;;3.50;1.23;;;15.40;99.90;;;;;;6239590;22;20200;-84
2021/09/13 01:00:14;;;;;;;4.43;1.80;;;15.40;99.90;;;;;;6241635;23;20219;-84
2021/09/13 01:02:41;;;;;;;3.13;1.47;;;15.40;99.90;;;;;;6242350;23;20178;-84
2021/09/13 01:05:11;;;;;;;2.38;1.50;;;15.40;99.90;;;;;;6241415;23;20165;-84
2021/09/13 01:07:38;;;;;;;2.70;1.50;;;15.40;99.90;;;;;;6239951;23;20708;-84
2021/09/13 01:10:06;;;;;;;3.13;1.50;;;15.50;99.90;;;;;;6241181;23;20189;-84
2021/09/13 01:12:33;;;;;;;1.90;1.40;;;15.50;99.90;;;;;;6241050;22;20276;-83
2021/09/13 01:15:00;;;;;;;2.30;1.60;;;15.50;99.90;;;;;;6240189;23;20210;-84
2021/09/13 01:17:27;;;;;;;5.77;1.90;;;15.50;99.90;;;;;;6241751;23;20176;-84
2021/09/13 01:19:54;;;;;;;5.67;2.10;;;15.50;99.90;;;;;;6240745;23;20174;-82
2021/09/13 01:22:22;;;;;;;3.33;1.53;;;15.50;99.90;;;;;;6241572;23;20173;-81
2021/09/13 01:24:51;;;;;;;3.83;1.30;;;15.60;99.90;;;;;;6241614;23;20178;-84
2021/09/13 01:27:18;;;;;;;1.97;1.40;;;15.60;99.90;;;;;;6241012;23;20169;-84
2021/09/13 01:29:44;;;;;;;4.65;1.60;;;15.60;99.90;;;;;;6241208;23;20170;-86
2021/09/13 01:32:11;;;;;;;5.13;1.50;;;15.70;99.90;;;;;;6241580;23;20169;-83
2021/09/13 01:34:38;;;;;;;4.47;1.45;;;15.70;99.90;;;;;;6240728;23;20196;-85
2021/09/13 01:37:05;;;;;;;5.03;1.42;;;15.70;99.90;;;;;;6237561;23;20503;-86
2021/09/13 01:39:32;;;;;;;3.47;0.90;;;15.70;99.90;;;;;;6238588;23;20166;-84
2021/09/13 01:42:01;;;;;;;2.70;1.30;;;15.70;99.90;;;;;;6239803;23;20162;-83
2021/09/13 01:44:28;;;;;;;3.70;1.37;;;15.70;99.90;;;;;;6240992;23;20247;-85
2021/09/13 01:46:56;;;;;;;2.97;1.10;;;15.70;99.90;;;;;;6240581;23;20277;-85
2021/09/13 01:49:23;;;;;;;1.95;0.90;;;15.70;99.90;;;;;;6240160;23;20165;-82
2021/09/13 01:51:49;;;;;;;2.40;1.17;;;15.70;99.90;;;;;;6239456;23;20169;-82
2021/09/13 01:54:16;;;;;;;2.20;1.23;;;15.70;99.90;;;;;;6239844;23;20199;-85
2021/09/13 01:56:43;;;;;;;1.53;1.00;;;15.80;99.90;;;;;;6251026;22;20230;-85
2021/09/13 01:59:11;;;;;;;4.40;1.77;;;15.80;99.90;;;;;;6271701;22;20172;-85
2021/09/13 02:01:38;;;;;;;2.27;1.40;;;15.80;99.90;;;;;;6266875;22;20165;-84
2021/09/13 02:04:05;;;;;;;2.58;1.38;;;15.80;99.90;;;;;;6268748;22;20169;-85
2021/09/13 02:06:32;;;;;;;3.08;1.20;;;15.80;99.90;;;;;;6270224;22;20168;-85
2021/09/13 02:08:59;;;;;;;2.10;1.10;;;15.70;99.90;;;;;;6268252;22;20436;-86
2021/09/13 02:11:26;;;;;;;5.05;1.30;;;15.70;99.90;;;;;;6268429;22;20165;-85
2021/09/13 02:13:53;;;;;;;1.83;0.90;;;15.70;99.90;;;;;;6268545;22;20168;-85
2021/09/13 02:16:21;;;;;;;1.63;0.90;;;15.70;99.90;;;;;;6268887;22;20192;-85
2021/09/13 02:18:48;;;;;;;3.53;1.00;;;15.70;99.90;;;;;;6268304;22;20194;-85
2021/09/13 02:21:15;;;;;;;2.10;0.97;;;15.70;99.90;;;;;;6267725;22;20586;-85
2021/09/13 02:23:42;;;;;;;2.10;1.10;;;15.70;99.90;;;;;;6269566;22;20168;-84
2021/09/13 02:26:09;;;;;;;1.80;0.87;;;15.70;99.90;;;;;;6271501;22;20160;-85
2021/09/13 02:28:35;;;;;;;2.47;0.80;;;15.70;99.90;;;;;;6270954;22;20169;-85
2021/09/13 02:31:02;;;;;;;2.33;1.03;;;15.70;99.90;;;;;;6270612;22;20181;-84
2021/09/13 02:33:30;;;;;;;5.28;1.25;;;15.70;99.90;;;;;;6271028;22;20837;-84
2021/09/13 02:35:57;;;;;;;1.13;0.90;;;15.70;99.90;;;;;;6270407;22;20192;-85
2021/09/13 02:38:24;;;;;;;3.77;1.23;;;15.70;99.90;;;;;;6269496;22;20177;-84
2021/09/13 02:40:51;;;;;;;2.63;1.30;;;15.70;99.90;;;;;;6270873;22;20176;-83
2021/09/13 02:43:18;;;;;;;2.60;0.93;;;15.70;99.90;;;;;;6270725;22;20177;-84
2021/09/13 02:45:45;;;;;;;3.05;1.10;;;15.70;99.90;;;;;;6269941;22;20176;-89
2021/09/13 02:48:12;;;;;;;2.30;1.03;;;15.70;99.90;;;;;;6272424;22;20202;-86
2021/09/13 02:50:40;;;;;;;2.83;1.10;;;15.70;99.90;;;;;;6271497;22;20173;-87
2021/09/13 02:53:07;;;;;;;1.83;0.90;;;15.70;99.90;;;;;;6271313;22;20438;-88
2021/09/13 02:55:34;;;;;;;3.40;0.90;;;15.60;99.90;;;;;;6272386;22;20904;-85
2021/09/13 02:58:00;;;;;;;1.43;0.90;;;15.60;99.90;;;;;;6272315;22;20208;-85
2021/09/13 03:00:27;;;;;;;3.07;1.50;;;15.60;99.90;;;;;;6274207;22;20164;-84
2021/09/13 03:02:54;;;;;;;2.67;1.00;;;15.50;99.90;;;;;;6273719;22;20180;-85
2021/09/13 03:05:21;;;;;;;1.30;0.90;;;15.50;99.90;;;;;;6273181;22;20173;-84
2021/09/13 03:07:49;;;;;;;1.38;0.95;;;15.50;99.90;;;;;;6272488;22;20512;-85
2021/09/13 03:10:16;;;;;;;1.73;0.90;;;15.50;99.90;;;;;;6273016;22;20534;-84
2021/09/13 03:12:43;;;;;;;2.15;1.15;;;15.40;99.90;;;;;;6272495;22;20172;-85
2021/09/13 03:15:11;;;;;;;1.43;1.03;;;15.40;99.90;;;;;;6273847;22;20200;-85
2021/09/13 03:17:39;;;;;;;1.90;0.83;;;15.40;99.90;;;;;;6272658;22;20173;-83
2021/09/13 03:20:07;;;;;;;1.60;0.90;;;15.40;99.90;;;;;;6272956;22;20203;-86
2021/09/13 03:22:34;;;;;;;1.33;1.00;;;15.40;99.90;;;;;;6272809;22;20438;-85
2021/09/13 03:25:03;;;;;;;4.17;1.37;;;15.40;99.90;;;;;;6273530;22;20176;-84
2021/09/13 03:27:30;;;;;;;4.20;1.33;;;15.40;99.90;;;;;;6273266;22;20196;-86
2021/09/13 03:29:57;;;;;;;2.67;1.20;;;15.40;99.90;;;;;;6274204;22;20211;-85
2021/09/13 03:32:24;;;;;;;3.72;1.20;;;15.40;99.90;;;;;;6272522;22;20160;-84
2021/09/13 03:34:51;;;;;;;2.00;1.05;;;15.40;99.90;;;;;;6271627;22;20717;-83
2021/09/13 03:37:18;;;;;;;3.70;1.50;;;15.40;99.90;;;;;;6273726;22;20200;-83
2021/09/13 03:39:46;;;;;;;3.73;1.10;;;15.40;99.90;;;;;;6272848;22;20171;-84
2021/09/13 03:42:14;;;;;;;2.40;1.20;;;15.40;99.90;;;;;;6273156;22;20187;-86
2021/09/13 03:44:42;;;;;;;2.27;1.03;;;15.40;99.90;;;;;;6273300;22;20539;-86
2021/09/13 03:47:09;;;;;;;1.20;0.80;;;15.40;99.90;;;;;;6273930;22;20331;-86
2021/09/13 03:49:35;;;;;;;2.57;1.13;;;15.40;99.90;;;;;;6273223;22;20181;-83
2021/09/13 03:52:07;;;;;;;3.23;1.33;;;15.40;99.90;;;;;;6273322;22;20173;-86
2021/09/13 03:54:34;;;;;;;4.03;1.27;;;15.40;99.90;;;;;;6273054;22;20188;-85
2021/09/13 03:57:01;;;;;;;2.15;1.17;;;15.40;99.90;;;;;;6272857;22;20215;-84
2021/09/13 03:59:29;;;;;;;2.53;1.17;;;15.30;99.90;;;;;;6265763;22;20590;-86
2021/09/13 04:01:57;;;;;;;5.95;1.63;;;15.30;99.90;;;;;;6303800;22;20626;-85
2021/09/13 04:04:26;;;;;;;2.17;1.10;;;15.30;99.90;;;;;;6304403;22;20700;-86
2021/09/13 04:06:55;;;;;;;3.10;0.93;;;15.30;99.90;;;;;;6303954;22;20221;-86
2021/09/13 04:09:47;;;;;;;1.92;1.13;;;15.20;99.90;;;;;;6303373;22;20249;-85
2021/09/13 04:12:14;;;;;;;2.33;1.20;;;15.30;99.90;;;;;;6303817;22;20637;-86
2021/09/13 04:14:42;;;;;;;2.25;1.17;;;15.30;99.90;;;;;;6303935;22;20164;-85
2021/09/13 04:17:09;;;;;;;2.90;1.00;;;15.30;99.90;;;;;;6303737;22;20191;-86
2021/09/13 04:19:36;;;;;;;1.75;1.00;;;15.30;99.90;;;;;;6303590;22;20176;-86
2021/09/13 04:22:03;;;;;;;1.37;0.83;;;15.30;99.90;;;;;;6303178;22;20569;-85
2021/09/13 04:24:30;;;;;;;1.60;0.90;;;15.30;99.90;;;;;;6302477;22;20168;-85
2021/09/13 04:26:57;;;;;;;3.57;1.50;;;15.30;99.90;;;;;;6302234;22;20164;-87
2021/09/13 04:29:24;;;;;;;3.00;1.30;;;15.30;99.90;;;;;;6300569;22;20179;-84
2021/09/13 04:31:52;;;;;;;2.77;1.27;;;15.30;99.90;;;;;;6303220;22;20168;-84
2021/09/13 04:34:19;;;;;;;1.90;1.20;;;15.30;99.90;;;;;;6304759;22;20176;-86
2021/09/13 04:36:45;;;;;;;1.65;1.20;;;15.30;99.90;;;;;;6303089;22;20211;-84
2021/09/13 04:39:12;;;;;;;3.30;1.37;;;15.30;99.90;;;;;;6303862;22;20177;-87
2021/09/13 04:41:40;;;;;;;2.97;1.30;;;15.30;99.90;;;;;;6303683;22;20175;-84
2021/09/13 04:44:07;;;;;;;5.40;1.53;;;15.30;99.90;;;;;;6303276;22;20244;-85
2021/09/13 04:46:33;;;;;;;2.13;1.42;;;15.30;99.90;;;;;;6304239;22;20187;-85
2021/09/13 04:49:02;;;;;;;2.00;1.30;;;15.30;99.90;;;;;;6303154;22;20567;-86
2021/09/13 04:51:29;;;;;;;3.77;1.23;;;15.30;99.90;;;;;;6303437;22;20487;-85
2021/09/13 04:53:56;;;;;;;1.77;1.13;;;15.30;99.90;;;;;;6303339;22;20183;-87
2021/09/13 04:56:22;;;;;;;1.53;1.23;;;15.30;99.90;;;;;;6303432;22;20204;-85
2021/09/13 04:58:51;;;;;;;4.03;1.60;;;15.30;99.90;;;;;;6303334;22;20179;-85
2021/09/13 05:01:18;;;;;;;3.27;1.50;;;15.30;99.90;;;;;;6304300;22;20172;-86
2021/09/13 05:03:45;;;;;;;2.37;1.50;;;15.30;99.90;;;;;;6303059;22;20168;-86
2021/09/13 05:06:13;;;;;;;1.97;1.37;;;15.30;99.90;;;;;;6303168;22;20168;-86
2021/09/13 05:08:40;;;;;;;2.57;1.17;;;15.30;99.90;;;;;;6303723;22;20199;-87
2021/09/13 05:11:06;;;;;;;1.60;1.33;;;15.30;99.90;;;;;;6303256;22;20172;-85
2021/09/13 05:13:33;;;;;;;2.10;1.77;;;15.40;99.90;;;;;;6303319;22;20414;-87
2021/09/13 05:16:00;;;;;;;1.70;1.27;;;15.30;99.90;;;;;;6303472;22;20199;-88
2021/09/13 05:18:27;;;;;;;1.48;1.20;;;15.40;99.90;;;;;;6302670;22;20178;-87
2021/09/13 05:20:54;;;;;;;1.58;1.30;;;15.30;99.90;;;;;;6302830;22;20167;-86
2021/09/13 05:23:22;;;;;;;1.38;1.27;;;15.30;99.90;;;;;;6303731;22;20491;-87
2021/09/13 05:25:49;;;;;;;2.07;1.00;;;15.30;99.90;;;;;;6302786;22;20168;-86
2021/09/13 05:28:16;;;;;;;1.63;1.00;;;15.40;99.90;;;;;;6298964;22;20168;-86
2021/09/13 05:30:43;;;;;;;2.25;1.30;;;15.40;99.90;;;;;;6298943;22;20178;-85
2021/09/13 05:33:10;;;;;;;1.30;1.17;;;15.40;99.90;;;;;;6300613;22;20175;-87
2021/09/13 05:35:37;;;;;;;1.73;1.00;;;15.40;99.90;;;;;;6301700;22;20200;-84
2021/09/13 05:38:04;;;;;;;2.07;1.30;;;15.40;99.90;;;;;;6303064;22;20164;-84
2021/09/13 05:40:32;;;;;;;3.45;1.90;;;15.40;99.90;;;;;;6303414;22;20240;-84
2021/09/13 05:43:02;;;;;;;3.60;1.87;;;15.40;99.90;;;;;;6303693;22;20896;-85
2021/09/13 05:45:29;;;;;;;2.40;1.33;;;15.40;99.90;;;;;;6303223;22;20164;-84
2021/09/13 05:47:56;;;;;;;1.90;1.70;;;15.40;99.90;;;;;;6302938;22;20168;-84
2021/09/13 05:50:22;;;;;;;2.65;1.60;;;15.40;99.90;;;;;;6303679;22;20179;-85
2021/09/13 05:52:49;;;;;;;2.30;1.50;;;15.40;99.90;;;;;;6303104;22;20163;-86
2021/09/13 05:55:16;;;;;;;3.03;1.95;;;15.40;99.90;;;;;;6303563;22;20194;-84
2021/09/13 05:57:45;;;;;;;3.63;2.10;;;15.40;99.90;;;;;;6303366;22;20180;-84
2021/09/13 06:00:12;;;;;;;2.00;1.63;;;15.40;99.90;;;;;;6286131;22;20204;-86
2021/09/13 06:02:39;;;;;;;3.38;1.73;;;15.40;99.90;;;;;;6272778;22;20177;-83
2021/09/13 06:05:07;;;;;;;2.97;1.52;;;15.50;99.90;;;;;;6272660;22;20177;-84
2021/09/13 06:07:34;;;;;;;3.23;1.83;;;15.50;99.90;;;;;;6272371;22;20169;-84
2021/09/13 06:10:01;;;;;;;2.08;1.83;;;15.50;99.90;;;;;;6272397;22;20193;-85
2021/09/13 06:12:28;;;;;;;2.65;1.70;;;15.60;99.90;;;;;;6272888;22;20165;-86
2021/09/13 06:14:56;;;;;;;3.85;2.20;;;15.60;99.90;;;;;;6271815;22;20169;-89
2021/09/13 06:17:23;;;;;;;6.38;2.20;;;15.70;99.90;;;;;;6273097;22;20197;-87
2021/09/13 06:19:50;;;;;;;5.25;1.90;;;15.70;99.90;;;;;;6272918;22;20176;-85
2021/09/13 06:22:16;;;;;;;4.45;2.35;;;15.80;99.90;;;;;;6272852;22;20179;-86
2021/09/13 06:24:44;;;;;;;4.73;2.10;;;15.80;99.90;;;;;;6273813;22;20177;-87
2021/09/13 06:27:11;;;;;;;5.40;1.80;;;15.90;99.90;;;;;;6273847;22;20431;-86
2021/09/13 06:29:38;;;;;;;3.80;1.80;;;16.00;99.90;;;;;;6273078;22;20165;-87
2021/09/13 06:32:07;;;;;;;4.75;2.03;;;16.10;99.90;;;;;;6274242;22;20169;-87
2021/09/13 06:34:34;;;;;;;4.27;2.10;;;16.10;99.90;;;;;;6274724;22;20172;-87
2021/09/13 06:37:02;;;;;;;3.17;1.75;;;16.20;99.90;;;;;;6273412;22;20185;-87
2021/09/13 06:39:31;;;;;;;3.33;1.80;;;16.30;99.90;;;;;;6274865;22;20515;-88
2021/09/13 06:41:57;;;;;;;2.58;1.70;;;16.40;99.90;;;;;;6274259;22;20179;-86
2021/09/13 06:44:25;;;;;;;9.98;1.80;;;16.50;99.90;;;;;;6271342;22;20173;-88
2021/09/13 06:47:03;;;;;;;2.55;1.52;;;16.50;99.90;;;;;;6272168;22;20172;-87
2021/09/13 06:49:33;;;;;;;6.13;2.20;;;16.60;99.90;;;;;;6274174;22;20168;-86
2021/09/13 06:52:00;;;;;;;4.45;1.98;;;16.70;99.90;;;;;;6275638;22;20171;-87
2021/09/13 06:54:27;;;;;;;7.85;2.17;;;16.80;99.90;;;;;;6276261;22;20169;-84
2021/09/13 06:56:56;;;;;;;5.32;2.17;;;16.80;99.90;;;;;;6275051;22;20275;-87
2021/09/13 06:59:23;;;;;;;4.90;2.15;;;16.90;99.90;;;;;;6274265;22;20201;-86
2021/09/13 07:05:40;;;;;;;7.22;2.20;;;16.90;99.90;;;;;;6128481;22;20177;-87
2021/09/13 07:08:07;;;;;;;6.38;1.80;;;16.90;99.90;;;;;;6271765;22;20184;-88
2021/09/13 07:10:34;;;;;;;9.10;2.13;;;16.90;99.90;;;;;;6269510;22;20168;-87
2021/09/13 07:13:03;;;;;;;5.68;1.70;;;17.00;99.90;;;;;;6270767;22;20173;-86
2021/09/13 07:15:30;;;;;;;7.75;2.13;;;17.00;99.90;;;;;;6272375;22;20165;-86
2021/09/13 07:17:58;;;;;;;5.60;1.90;;;17.00;99.90;;;;;;6270507;22;20515;-88
2021/09/13 07:20:25;;;;;;;2.75;1.80;;;17.00;99.90;;;;;;6246811;22;20274;-86
2021/09/13 07:22:54;;;;;;;7.15;1.98;;;17.00;99.90;;;;;;6270080;22;20157;-87
2021/09/13 07:25:20;;;;;;;6.07;2.15;;;17.00;99.90;;;;;;6270705;22;20164;-84
2021/09/13 07:27:47;;;;;;;3.45;1.90;;;17.00;99.90;;;;;;6270326;22;20169;-86
2021/09/13 07:30:15;;;;;;;5.32;1.90;;;17.00;99.90;;;;;;6270972;22;20173;-87
2021/09/13 07:32:42;;;;;;;4.30;1.65;;;17.00;99.90;;;;;;6270738;22;20256;-87
2021/09/13 07:35:10;;;;;;;3.13;1.92;;;17.00;99.90;;;;;;6270796;22;20188;-86
2021/09/13 07:37:39;;;;;;;5.22;2.45;;;17.00;99.90;;;;;;6270490;22;20199;-87
2021/09/13 07:40:08;;;;;;;3.45;1.98;;;17.00;99.90;;;;;;6271638;22;20272;-87
2021/09/13 07:42:36;;;;;;;5.22;1.92;;;17.10;99.90;;;;;;6272131;22;20220;-85
2021/09/13 07:45:03;;;;;;;6.35;2.50;;;17.20;99.90;;;;;;6271956;22;20164;-84
2021/09/13 07:47:31;;;;;;;7.93;2.22;;;17.20;99.90;;;;;;6269444;22;20203;-81
2021/09/13 07:49:58;;;;;;;5.15;1.77;;;17.30;99.90;;;;;;6269214;22;20221;-84
2021/09/13 07:52:25;;;;;;;2.90;1.60;;;17.40;99.90;;;;;;6270405;22;20168;-84
2021/09/13 07:54:52;;;;;;;3.38;1.73;;;17.40;99.90;;;;;;6270792;22;20168;-85
2021/09/13 07:57:20;;;;;;;3.55;1.73;;;17.50;99.90;;;;;;6271859;22;20242;-83
2021/09/13 07:59:47;;;;;;;2.75;1.40;;;17.60;99.90;;;;;;6270664;22;20209;-83
2021/09/13 08:02:14;;;;;;;3.10;2.00;;;17.70;99.90;;;;;;6272700;22;20168;-88
2021/09/13 08:04:41;;;;;;;3.88;1.70;;;17.70;99.90;;;;;;6271960;22;20508;-83
2021/09/13 08:07:08;;;;;;;2.67;1.73;;;17.70;99.90;;;;;;6271824;22;20184;-85
2021/09/13 08:09:34;;;;;;;2.47;1.67;;;17.80;99.90;;;;;;6272355;22;20185;-84
2021/09/13 08:12:01;;;;;;;5.32;1.92;;;17.80;99.90;;;;;;6272396;22;20187;-84
2021/09/13 08:14:30;;;;;;;3.92;1.98;;;17.80;99.90;;;;;;6271580;22;20169;-83
2021/09/13 08:16:56;;;;;;;4.93;1.52;;;17.80;99.90;;;;;;6271900;22;20208;-87
2021/09/13 08:19:23;;;;;;;7.35;2.47;;;17.90;99.90;;;;;;6272488;22;20179;-85
2021/09/13 08:21:50;;;;;;;4.10;2.00;;;17.80;99.90;;;;;;6271368;22;20238;-86
2021/09/13 08:24:17;;;;;;;4.68;1.98;;;17.90;99.90;;;;;;6272079;22;20203;-84
2021/09/13 08:26:44;;;;;;;8.35;2.55;;;18.00;99.90;;;;;;6270290;22;20180;-85
2021/09/13 08:29:14;;;;;;;4.07;2.00;;;18.00;99.90;;;;;;6271287;22;20574;-84
2021/09/13 08:31:43;;;;;;;3.60;1.88;;;18.00;99.90;;;;;;6271496;22;20300;-83
2021/09/13 08:34:11;;;;;;;3.50;1.60;;;18.10;99.90;;;;;;6272349;22;20168;-83
2021/09/13 08:36:38;;;;;;;3.08;1.67;;;18.10;99.90;;;;;;6270432;22;20222;-86
2021/09/13 08:39:05;;;;;;;4.82;2.13;;;18.10;99.90;;;;;;6270847;22;20233;-87
2021/09/13 08:41:32;;;;;;;7.53;1.95;;;18.10;99.90;;;;;;6268850;22;20173;-87
2021/09/13 08:44:00;;;;;;;5.18;1.55;;;18.20;99.90;;;;;;6266774;22;20172;-86
2021/09/13 08:46:36;;;;;;;5.15;1.70;;;18.30;99.90;;;;;;6268486;22;20239;-87
2021/09/13 08:49:06;;;;;;;6.22;2.03;;;18.40;99.90;;;;;;6270823;22;20173;-89
2021/09/13 08:51:33;;;;;;;6.50;1.77;;;18.50;99.90;;;;;;6272124;22;20223;-87
2021/09/13 08:54:04;;;;;;;7.47;2.00;;;18.60;99.90;;;;;;6271552;22;20529;-88
2021/09/13 08:56:35;;;;;;;3.72;1.70;;;18.80;99.90;;;;;;6268872;22;20604;-87
2021/09/13 08:59:04;;;;;;;2.50;1.35;;;18.90;99.90;;;;;;6266826;22;20576;-88
2021/09/13 09:01:31;;;;;;;5.28;1.92;;;18.90;99.90;;;;;;6267394;22;20215;-88
2021/09/13 09:03:59;;;;;;;4.70;1.95;;;19.00;99.90;;;;;;6269519;22;20274;-82
2021/09/13 09:06:35;;;;;;;8.20;1.80;;;19.00;99.90;;;;;;6271558;22;20243;-83
2021/09/13 09:09:05;;;;;;;5.25;1.65;;;19.10;99.90;;;;;;6271915;22;20188;-84
2021/09/13 09:11:56;;;;;;;5.70;2.20;;;19.00;99.90;;;;;;6271149;22;20171;-86
2021/09/13 09:14:41;;;;;;;4.60;1.80;;;19.10;99.90;;;;;;6271997;22;20171;-87
2021/09/13 09:17:13;;;;;;;2.28;1.20;;;19.20;99.90;;;;;;6270810;22;20271;-85
2021/09/13 09:19:40;;;;;;;5.63;1.75;;;19.30;99.90;;;;;;6270260;22;20248;-85
2021/09/13 09:22:26;;;;;;;4.57;1.60;;;19.40;99.90;;;;;;6269973;22;20191;-86
2021/09/13 09:24:55;;;;;;;6.68;1.80;;;19.50;99.90;;;;;;6269715;22;20835;-87
2021/09/13 09:27:23;;;;;;;2.72;1.23;;;19.50;99.90;;;;;;6270868;22;20169;-84
2021/09/13 09:29:50;;;;;;;4.03;1.55;;;19.60;99.90;;;;;;6269768;22;20176;-82
2021/09/13 09:32:25;;;;;;;6.28;1.80;;;19.60;99.90;;;;;;6269720;22;20207;-84
2021/09/13 09:34:53;;;;;;;5.32;1.52;;;19.70;99.90;;;;;;6269710;22;20171;-84
2021/09/13 09:37:24;;;;;;;3.55;1.40;;;19.90;99.90;;;;;;6269994;22;20465;-83
2021/09/13 09:39:56;;;;;;;5.15;1.73;;;19.90;99.90;;;;;;6270112;22;20165;-86
2021/09/13 09:42:34;;;;;;;6.88;1.80;;;20.00;99.90;;;;;;6272347;22;20174;-87
2021/09/13 09:45:04;;;;;;;5.28;1.40;;;20.20;99.90;;;;;;6272180;22;20788;-84
2021/09/13 09:47:31;;;;;;;3.72;1.40;;;20.30;99.90;;;;;;6270402;22;20173;-83
2021/09/13 09:50:00;;;;;;;3.72;1.48;;;20.40;99.90;;;;;;6271612;22;20723;-88
2021/09/13 09:52:35;;;;;;;5.50;1.48;;;20.40;99.90;;;;;;6272506;22;20436;-85
2021/09/13 09:55:15;;;;;;;4.82;1.70;;;20.40;99.90;;;;;;6272036;22;20164;-86
2021/09/13 09:57:43;;;;;;;5.63;1.27;;;20.40;99.90;;;;;;6270729;22;20199;-86
2021/09/13 10:00:26;;;;;;;5.70;1.63;;;20.40;99.90;;;;;;6271684;22;20211;-90
2021/09/13 10:02:53;;;;;;;3.00;1.13;;;20.50;99.90;;;;;;6272286;22;20584;-88
2021/09/13 10:05:21;;;;;;;4.63;1.83;;;20.50;99.90;;;;;;6271709;22;20173;-86
2021/09/13 10:07:50;;;;;;;3.97;1.50;;;20.40;99.90;;;;;;6271277;22;20173;-87
2021/09/13 10:10:19;;;;;;;4.07;1.60;;;20.50;99.90;;;;;;6270353;22;20226;-83
2021/09/13 10:12:47;;;;;;;6.22;1.65;;;20.50;99.90;;;;;;6268571;22;20176;-86
2021/09/13 10:15:15;;;;;;;3.78;1.50;;;20.40;99.90;;;;;;6269507;22;20174;-85
2021/09/13 10:17:43;;;;;;;3.75;1.55;;;20.40;99.90;;;;;;6270873;22;20193;-83
2021/09/13 10:20:11;;;;;;;7.07;1.40;;;20.40;99.90;;;;;;6272172;22;20247;-83
2021/09/13 10:22:40;;;;;;;7.65;1.60;;;20.20;99.90;;;;;;6270000;22;20183;-88
2021/09/13 10:25:08;;;;;;;3.13;1.10;;;20.30;99.90;;;;;;6270787;22;20173;-84
2021/09/13 10:27:38;;;;;;;4.57;1.33;;;20.20;99.90;;;;;;6270794;22;20173;-86
2021/09/13 10:30:17;;;;;;;3.70;1.38;;;20.20;99.90;;;;;;6268532;22;20179;-84
2021/09/13 10:32:45;;;;;;;4.28;1.52;;;20.20;99.90;;;;;;6267779;22;20164;-84
2021/09/13 10:35:13;;;;;;;3.90;1.83;;;20.20;99.90;;;;;;6271323;22;20585;-87
2021/09/13 10:37:43;;;;;;;4.32;1.52;;;20.20;99.90;;;;;;6271596;22;20192;-86
2021/09/13 10:40:21;;;;;;;3.05;1.38;;;20.20;99.90;;;;;;6272551;22;20165;-84
2021/09/13 10:42:51;;;;;;;4.15;1.80;;;20.30;99.90;;;;;;6270422;22;20173;-86
2021/09/13 10:45:22;;;;;;;2.33;1.20;;;20.40;99.90;;;;;;6270769;22;20179;-84
2021/09/13 10:47:50;;;;;;;1.80;1.10;;;20.30;99.90;;;;;;6269980;22;20169;-86
2021/09/13 10:50:33;;;;;;;3.85;1.33;;;20.40;99.90;;;;;;6271399;22;20208;-90
2021/09/13 10:53:02;;;;;;;1.95;1.05;;;20.40;99.90;;;;;;6270410;22;20168;-84
2021/09/13 10:55:33;;;;;;;2.90;1.08;;;20.50;99.90;;;;;;6271376;22;20179;-84
2021/09/13 10:58:12;;;;;;;2.92;1.95;;;20.50;99.90;;;;;;6270878;22;20196;-85
2021/09/13 11:01:00;;;;;;;2.50;1.13;;;20.30;99.90;;;;;;6270931;22;20686;-84
2021/09/13 11:03:39;;;;;;;3.60;0.98;;;20.30;99.90;;;;;;6271841;22;20161;-84
2021/09/13 11:06:43;;;;;;;4.20;1.67;;;20.30;99.90;;;;;;6270107;22;20569;-84
2021/09/13 11:09:14;;;;;;;2.03;1.10;;;20.50;99.90;;;;;;6271725;22;20811;-85
2021/09/13 11:11:44;;;;;;;3.67;1.20;;;20.70;99.90;;;;;;6269563;22;20466;-87
2021/09/13 11:14:16;;;;;;;5.05;1.40;;;20.80;99.90;;;;;;6270976;22;20196;-84
2021/09/13 11:16:47;;;;;;;3.50;1.20;;;20.90;99.90;;;;;;6272386;22;20173;-84
2021/09/13 11:19:17;;;;;;;1.95;1.00;;;20.90;99.90;;;;;;6273015;22;20161;-84
2021/09/13 11:21:46;;;;;;;3.13;1.10;;;21.00;99.90;;;;;;6269666;22;20551;-83
2021/09/13 11:24:16;;;;;;;3.33;1.45;;;20.90;99.90;;;;;;6271013;22;20179;-84
2021/09/13 11:26:47;;;;;;;2.97;1.20;;;20.90;99.90;;;;;;6269921;22;20223;-81
2021/09/13 11:29:18;;;;;;;3.03;1.45;;;21.10;99.90;;;;;;6272027;22;20161;-83
2021/09/13 11:31:47;;;;;;;1.58;0.98;;;21.10;99.90;;;;;;6269558;22;20157;-84
2021/09/13 11:34:30;;;;;;;1.73;1.17;;;21.10;99.90;;;;;;6272619;22;20211;-86
2021/09/13 11:37:00;;;;;;;1.83;1.25;;;21.30;99.90;;;;;;6270246;22;20553;-87
2021/09/13 11:39:29;;;;;;;2.13;1.40;;;21.20;99.90;;;;;;6272277;22;20168;-83
2021/09/13 11:42:03;;;;;;;2.97;1.50;;;21.10;99.90;;;;;;6272320;22;20705;-88
2021/09/13 11:44:37;;;;;;;39.63;3.80;;;21.10;99.90;;;;;;6271495;22;20164;-86
2021/09/13 11:47:06;;;;;;;2.95;1.25;;;21.10;99.90;;;;;;6271513;22;20164;-88
2021/09/13 11:49:35;;;;;;;3.15;0.93;;;21.10;99.90;;;;;;6273593;22;20239;-90
2021/09/13 11:52:06;;;;;;;2.70;1.02;;;21.00;99.90;;;;;;6273148;22;20612;-94
2021/09/13 11:54:39;;;;;;;4.35;1.30;;;20.80;99.90;;;;;;6273327;22;20215;-90
2021/09/13 11:57:07;;;;;;;2.67;1.30;;;20.80;99.90;;;;;;6272904;22;20283;-88
2021/09/13 11:59:35;;;;;;;3.85;1.02;;;20.70;99.90;;;;;;6272708;22;20177;-90
2021/09/13 12:02:04;;;;;;;1.73;0.80;;;20.80;99.90;;;;;;6272592;22;20179;-86
2021/09/13 12:04:36;;;;;;;2.47;1.10;;;20.80;99.90;;;;;;6272671;22;20169;-85
2021/09/13 12:07:07;;;;;;;2.70;1.10;;;21.00;99.90;;;;;;6271030;22;20249;-86
2021/09/13 12:09:37;;;;;;;4.55;1.17;;;21.10;99.90;;;;;;6271278;22;20192;-87
2021/09/13 12:12:05;;;;;;;1.67;0.95;;;21.20;99.90;;;;;;6270916;22;20820;-88
2021/09/13 12:14:36;;;;;;;2.25;1.23;;;21.20;99.90;;;;;;6267921;22;20176;-83
2021/09/13 12:17:12;;;;;;;2.95;1.27;;;21.40;99.90;;;;;;6269231;22;20165;-84
2021/09/13 12:19:40;;;;;;;1.98;1.02;;;21.40;99.90;;;;;;6270468;22;20156;-84
2021/09/13 12:22:09;;;;;;;1.70;0.93;;;21.40;99.90;;;;;;6271811;22;20172;-84
2021/09/13 12:24:37;;;;;;;1.70;0.88;;;21.50;99.90;;;;;;6271433;22;20173;-85
2021/09/13 12:27:14;;;;;;;2.70;1.00;;;21.40;99.90;;;;;;6271004;22;20172;-87
2021/09/13 12:29:58;;;;;;;3.83;1.20;;;21.70;99.90;;;;;;6270786;22;20175;-90
2021/09/13 12:32:26;;;;;;;3.85;1.15;;;21.80;99.90;;;;;;6272211;22;20184;-84
2021/09/13 12:34:54;;;;;;;2.53;0.95;;;21.60;99.90;;;;;;6270963;22;20681;-85
2021/09/13 12:37:32;;;;;;;2.55;1.10;;;21.70;99.90;;;;;;6273533;22;20314;-87
2021/09/13 12:40:11;;;;;;;3.15;0.90;;;21.80;99.90;;;;;;6271229;22;20203;-83
2021/09/13 12:42:39;;;;;;;1.70;0.70;;;21.90;99.90;;;;;;6271466;22;20169;-82
2021/09/13 12:45:09;;;;;;;2.50;0.93;;;22.10;99.90;;;;;;6271166;22;20177;-85
2021/09/13 12:47:39;;;;;;;2.00;1.00;;;22.10;99.90;;;;;;6272026;22;20195;-85
2021/09/13 12:50:07;;;;;;;2.63;0.93;;;22.10;99.90;;;;;;6271904;22;20193;-84
2021/09/13 12:52:47;;;;;;;1.75;1.15;;;21.90;99.90;;;;;;6271770;22;20172;-84
2021/09/13 12:55:19;;;;;;;2.28;0.98;;;21.70;99.90;;;;;;6272244;22;20179;-85
2021/09/13 12:57:46;;;;;;;4.15;1.13;;;21.60;99.90;;;;;;6270739;22;20197;-82
2021/09/13 13:00:16;;;;;;;2.03;1.00;;;21.60;99.90;;;;;;6269739;22;20187;-83